sensor_id;sensor_type;location;lat;lon;timestamp;P1;durP1;ratioP1;P2;durP2;ratioP2
13588;SDS011;6865;52.552;13.434;2023-05-10T00:00:44;6.60;;;5.23;;
13588;SDS011;6865;52.552;13.434;2023-05-10T00:03:11;5.83;;;4.90;;
13588;SDS011;6865;52.552;13.434;2023-05-10T00:05:38;8.33;;;5.17;;
13588;SDS011;6865;52.552;13.434;2023-05-10T00:08:04;9.10;;;4.80;;
13588;SDS011;6865;52.552;13.434;2023-05-10T00:10:31;7.23;;;5.10;;
13588;SDS011;6865;52.552;13.434;2023-05-10T00:12:58;10.63;;;5.13;;
13588;SDS011;6865;52.552;13.434;2023-05-10T00:15:24;5.57;;;5.03;;
13588;SDS011;6865;52.552;13.434;2023-05-10T00:17:51;6.57;;;4.93;;
13588;SDS011;6865;52.552;13.434;2023-05-10T00:20:18;7.47;;;5.20;;
13588;SDS011;6865;52.552;13.434;2023-05-10T00:22:44;6.60;;;4.97;;
13588;SDS011;6865;52.552;13.434;2023-05-10T00:25:11;6.13;;;4.90;;
13588;SDS011;6865;52.552;13.434;2023-05-10T00:27:38;5.27;;;4.77;;
13588;SDS011;6865;52.552;13.434;2023-05-10T00:30:04;5.30;;;4.77;;
13588;SDS011;6865;52.552;13.434;2023-05-10T00:32:32;7.13;;;5.00;;
13588;SDS011;6865;52.552;13.434;2023-05-10T00:34:59;6.73;;;4.90;;
13588;SDS011;6865;52.552;13.434;2023-05-10T00:37:25;6.30;;;5.10;;
13588;SDS011;6865;52.552;13.434;2023-05-10T00:39:52;7.80;;;4.73;;
13588;SDS011;6865;52.552;13.434;2023-05-10T00:42:19;6.80;;;4.90;;
13588;SDS011;6865;52.552;13.434;2023-05-10T00:44:45;6.67;;;4.73;;
13588;SDS011;6865;52.552;13.434;2023-05-10T00:47:12;7.50;;;5.40;;
13588;SDS011;6865;52.552;13.434;2023-05-10T00:49:39;7.53;;;5.07;;
13588;SDS011;6865;52.552;13.434;2023-05-10T00:52:08;7.13;;;5.20;;
13588;SDS011;6865;52.552;13.434;2023-05-10T00:54:35;5.70;;;4.90;;
13588;SDS011;6865;52.552;13.434;2023-05-10T00:57:02;6.33;;;4.80;;
13588;SDS011;6865;52.552;13.434;2023-05-10T00:59:29;5.67;;;4.90;;
13588;SDS011;6865;52.552;13.434;2023-05-10T01:01:56;5.83;;;4.87;;
13588;SDS011;6865;52.552;13.434;2023-05-10T01:04:24;6.30;;;4.90;;
13588;SDS011;6865;52.552;13.434;2023-05-10T01:06:54;6.70;;;4.83;;
13588;SDS011;6865;52.552;13.434;2023-05-10T01:09:21;5.93;;;5.17;;
13588;SDS011;6865;52.552;13.434;2023-05-10T01:11:48;6.33;;;5.30;;
13588;SDS011;6865;52.552;13.434;2023-05-10T01:14:16;7.80;;;5.30;;
13588;SDS011;6865;52.552;13.434;2023-05-10T01:16:46;6.83;;;4.57;;
13588;SDS011;6865;52.552;13.434;2023-05-10T01:19:24;5.70;;;4.87;;
13588;SDS011;6865;52.552;13.434;2023-05-10T01:22:02;6.47;;;4.80;;
13588;SDS011;6865;52.552;13.434;2023-05-10T01:24:40;6.30;;;5.10;;
13588;SDS011;6865;52.552;13.434;2023-05-10T01:33:09;5.20;;;4.70;;
13588;SDS011;6865;52.552;13.434;2023-05-10T01:35:47;5.53;;;4.67;;
13588;SDS011;6865;52.552;13.434;2023-05-10T01:38:34;5.83;;;4.93;;
13588;SDS011;6865;52.552;13.434;2023-05-10T01:41:17;6.40;;;4.87;;
13588;SDS011;6865;52.552;13.434;2023-05-10T01:43:59;5.97;;;4.70;;
13588;SDS011;6865;52.552;13.434;2023-05-10T01:46:39;6.13;;;4.97;;
13588;SDS011;6865;52.552;13.434;2023-05-10T01:49:41;8.77;;;5.30;;
13588;SDS011;6865;52.552;13.434;2023-05-10T01:52:05;5.87;;;5.17;;
13588;SDS011;6865;52.552;13.434;2023-05-10T01:54:35;8.80;;;5.17;;
13588;SDS011;6865;52.552;13.434;2023-05-10T01:57:07;8.60;;;5.37;;
13588;SDS011;6865;52.552;13.434;2023-05-10T01:59:38;8.40;;;4.80;;
13588;SDS011;6865;52.552;13.434;2023-05-10T02:02:09;6.87;;;5.10;;
13588;SDS011;6865;52.552;13.434;2023-05-10T02:04:38;5.80;;;5.03;;
13588;SDS011;6865;52.552;13.434;2023-05-10T02:07:06;6.83;;;5.10;;
13588;SDS011;6865;52.552;13.434;2023-05-10T02:09:34;8.53;;;5.10;;
13588;SDS011;6865;52.552;13.434;2023-05-10T02:12:03;8.67;;;5.10;;
13588;SDS011;6865;52.552;13.434;2023-05-10T02:14:32;6.33;;;5.10;;
13588;SDS011;6865;52.552;13.434;2023-05-10T02:17:02;9.73;;;5.00;;
13588;SDS011;6865;52.552;13.434;2023-05-10T02:19:31;6.40;;;4.80;;
13588;SDS011;6865;52.552;13.434;2023-05-10T02:22:00;5.40;;;4.40;;
13588;SDS011;6865;52.552;13.434;2023-05-10T02:24:27;8.03;;;5.10;;
13588;SDS011;6865;52.552;13.434;2023-05-10T02:26:55;12.13;;;5.57;;
13588;SDS011;6865;52.552;13.434;2023-05-10T02:29:23;5.80;;;4.73;;
13588;SDS011;6865;52.552;13.434;2023-05-10T02:31:51;7.63;;;4.83;;
13588;SDS011;6865;52.552;13.434;2023-05-10T02:34:21;6.30;;;4.90;;
13588;SDS011;6865;52.552;13.434;2023-05-10T02:36:49;6.67;;;5.37;;
13588;SDS011;6865;52.552;13.434;2023-05-10T02:39:17;5.97;;;4.73;;
13588;SDS011;6865;52.552;13.434;2023-05-10T02:41:46;8.73;;;4.97;;
13588;SDS011;6865;52.552;13.434;2023-05-10T02:44:15;6.60;;;4.90;;
13588;SDS011;6865;52.552;13.434;2023-05-10T02:46:46;8.40;;;5.00;;
13588;SDS011;6865;52.552;13.434;2023-05-10T02:49:14;6.57;;;4.60;;
13588;SDS011;6865;52.552;13.434;2023-05-10T02:51:41;6.80;;;4.80;;
13588;SDS011;6865;52.552;13.434;2023-05-10T02:54:20;6.60;;;4.50;;
13588;SDS011;6865;52.552;13.434;2023-05-10T02:56:57;9.07;;;4.50;;
13588;SDS011;6865;52.552;13.434;2023-05-10T02:59:26;7.27;;;4.80;;
13588;SDS011;6865;52.552;13.434;2023-05-10T03:01:53;7.53;;;5.03;;
13588;SDS011;6865;52.552;13.434;2023-05-10T03:04:20;10.50;;;4.90;;
13588;SDS011;6865;52.552;13.434;2023-05-10T03:06:46;7.20;;;4.43;;
13588;SDS011;6865;52.552;13.434;2023-05-10T03:09:13;7.37;;;4.77;;
13588;SDS011;6865;52.552;13.434;2023-05-10T03:11:55;8.17;;;4.77;;
13588;SDS011;6865;52.552;13.434;2023-05-10T03:14:45;6.37;;;4.50;;
13588;SDS011;6865;52.552;13.434;2023-05-10T03:17:35;6.60;;;5.00;;
13588;SDS011;6865;52.552;13.434;2023-05-10T03:20:12;5.83;;;4.47;;
13588;SDS011;6865;52.552;13.434;2023-05-10T03:22:50;8.37;;;4.60;;
13588;SDS011;6865;52.552;13.434;2023-05-10T03:25:24;7.27;;;4.90;;
13588;SDS011;6865;52.552;13.434;2023-05-10T03:27:51;5.33;;;4.80;;
13588;SDS011;6865;52.552;13.434;2023-05-10T03:30:18;11.00;;;4.90;;
13588;SDS011;6865;52.552;13.434;2023-05-10T03:32:45;5.57;;;4.40;;
13588;SDS011;6865;52.552;13.434;2023-05-10T03:35:12;6.40;;;4.13;;
13588;SDS011;6865;52.552;13.434;2023-05-10T03:37:40;7.47;;;4.80;;
13588;SDS011;6865;52.552;13.434;2023-05-10T03:40:07;6.70;;;4.37;;
13588;SDS011;6865;52.552;13.434;2023-05-10T03:42:34;6.70;;;4.50;;
13588;SDS011;6865;52.552;13.434;2023-05-10T03:45:01;7.23;;;4.67;;
13588;SDS011;6865;52.552;13.434;2023-05-10T03:47:28;7.47;;;4.17;;
13588;SDS011;6865;52.552;13.434;2023-05-10T03:49:55;10.63;;;4.20;;
13588;SDS011;6865;52.552;13.434;2023-05-10T03:52:22;5.90;;;4.23;;
13588;SDS011;6865;52.552;13.434;2023-05-10T03:54:49;8.23;;;5.13;;
13588;SDS011;6865;52.552;13.434;2023-05-10T03:57:15;6.60;;;4.47;;
13588;SDS011;6865;52.552;13.434;2023-05-10T03:59:42;7.93;;;4.43;;
13588;SDS011;6865;52.552;13.434;2023-05-10T04:02:08;11.57;;;4.40;;
13588;SDS011;6865;52.552;13.434;2023-05-10T04:04:35;7.50;;;4.90;;
13588;SDS011;6865;52.552;13.434;2023-05-10T04:07:02;8.87;;;4.50;;
13588;SDS011;6865;52.552;13.434;2023-05-10T04:09:29;7.73;;;4.40;;
13588;SDS011;6865;52.552;13.434;2023-05-10T04:11:55;7.40;;;4.43;;
13588;SDS011;6865;52.552;13.434;2023-05-10T04:14:22;7.63;;;4.53;;
13588;SDS011;6865;52.552;13.434;2023-05-10T04:16:49;6.57;;;4.50;;
13588;SDS011;6865;52.552;13.434;2023-05-10T04:19:15;5.67;;;4.43;;
13588;SDS011;6865;52.552;13.434;2023-05-10T04:21:42;7.37;;;4.83;;
13588;SDS011;6865;52.552;13.434;2023-05-10T04:24:08;7.00;;;4.90;;
13588;SDS011;6865;52.552;13.434;2023-05-10T04:26:35;6.63;;;4.23;;
13588;SDS011;6865;52.552;13.434;2023-05-10T04:29:02;5.17;;;4.20;;
13588;SDS011;6865;52.552;13.434;2023-05-10T04:31:28;6.33;;;4.80;;
13588;SDS011;6865;52.552;13.434;2023-05-10T04:33:55;7.87;;;4.23;;
13588;SDS011;6865;52.552;13.434;2023-05-10T04:36:22;7.57;;;4.60;;
13588;SDS011;6865;52.552;13.434;2023-05-10T04:38:48;5.20;;;4.30;;
13588;SDS011;6865;52.552;13.434;2023-05-10T04:41:15;6.90;;;4.40;;
13588;SDS011;6865;52.552;13.434;2023-05-10T04:43:42;6.27;;;4.37;;
13588;SDS011;6865;52.552;13.434;2023-05-10T04:46:08;7.63;;;4.73;;
13588;SDS011;6865;52.552;13.434;2023-05-10T04:48:35;6.13;;;4.30;;
13588;SDS011;6865;52.552;13.434;2023-05-10T04:51:02;11.20;;;4.37;;
13588;SDS011;6865;52.552;13.434;2023-05-10T04:53:30;7.43;;;4.23;;
13588;SDS011;6865;52.552;13.434;2023-05-10T04:55:56;6.83;;;4.33;;
13588;SDS011;6865;52.552;13.434;2023-05-10T04:58:23;5.37;;;4.03;;
13588;SDS011;6865;52.552;13.434;2023-05-10T05:00:50;7.43;;;4.40;;
13588;SDS011;6865;52.552;13.434;2023-05-10T05:03:16;6.53;;;4.17;;
13588;SDS011;6865;52.552;13.434;2023-05-10T05:05:43;8.77;;;4.50;;
13588;SDS011;6865;52.552;13.434;2023-05-10T05:08:10;7.50;;;4.60;;
13588;SDS011;6865;52.552;13.434;2023-05-10T05:10:37;9.23;;;4.23;;
13588;SDS011;6865;52.552;13.434;2023-05-10T05:13:04;6.37;;;4.00;;
13588;SDS011;6865;52.552;13.434;2023-05-10T05:15:30;5.10;;;3.57;;
13588;SDS011;6865;52.552;13.434;2023-05-10T05:17:57;8.17;;;5.07;;
13588;SDS011;6865;52.552;13.434;2023-05-10T05:20:24;7.43;;;4.13;;
13588;SDS011;6865;52.552;13.434;2023-05-10T05:22:50;7.10;;;3.77;;
13588;SDS011;6865;52.552;13.434;2023-05-10T05:25:17;7.17;;;3.90;;
13588;SDS011;6865;52.552;13.434;2023-05-10T05:27:43;6.27;;;4.03;;
13588;SDS011;6865;52.552;13.434;2023-05-10T05:30:10;6.57;;;4.00;;
13588;SDS011;6865;52.552;13.434;2023-05-10T05:32:37;5.60;;;4.13;;
13588;SDS011;6865;52.552;13.434;2023-05-10T05:35:04;5.47;;;3.60;;
13588;SDS011;6865;52.552;13.434;2023-05-10T05:37:31;5.17;;;3.47;;
13588;SDS011;6865;52.552;13.434;2023-05-10T05:39:58;6.47;;;3.83;;
13588;SDS011;6865;52.552;13.434;2023-05-10T05:42:27;6.70;;;3.83;;
13588;SDS011;6865;52.552;13.434;2023-05-10T05:44:53;7.63;;;3.43;;
13588;SDS011;6865;52.552;13.434;2023-05-10T05:47:20;5.50;;;3.60;;
13588;SDS011;6865;52.552;13.434;2023-05-10T05:49:46;5.68;;;3.53;;
13588;SDS011;6865;52.552;13.434;2023-05-10T05:52:13;5.90;;;3.80;;
13588;SDS011;6865;52.552;13.434;2023-05-10T05:54:40;6.35;;;3.40;;
13588;SDS011;6865;52.552;13.434;2023-05-10T05:57:06;7.35;;;3.33;;
13588;SDS011;6865;52.552;13.434;2023-05-10T05:59:33;6.32;;;3.60;;
13588;SDS011;6865;52.552;13.434;2023-05-10T06:02:00;7.82;;;3.38;;
13588;SDS011;6865;52.552;13.434;2023-05-10T06:04:26;7.93;;;3.78;;
13588;SDS011;6865;52.552;13.434;2023-05-10T06:06:53;8.68;;;4.63;;
13588;SDS011;6865;52.552;13.434;2023-05-10T06:09:20;6.95;;;3.70;;
13588;SDS011;6865;52.552;13.434;2023-05-10T06:11:47;9.27;;;3.47;;
13588;SDS011;6865;52.552;13.434;2023-05-10T06:14:13;4.72;;;3.40;;
13588;SDS011;6865;52.552;13.434;2023-05-10T06:16:40;6.70;;;3.35;;
13588;SDS011;6865;52.552;13.434;2023-05-10T06:19:07;5.88;;;3.30;;
13588;SDS011;6865;52.552;13.434;2023-05-10T06:21:34;6.40;;;2.72;;
13588;SDS011;6865;52.552;13.434;2023-05-10T06:24:00;5.32;;;2.90;;
13588;SDS011;6865;52.552;13.434;2023-05-10T06:26:27;10.82;;;3.00;;
13588;SDS011;6865;52.552;13.434;2023-05-10T06:28:54;4.97;;;2.65;;
13588;SDS011;6865;52.552;13.434;2023-05-10T06:31:20;4.43;;;3.00;;
13588;SDS011;6865;52.552;13.434;2023-05-10T06:33:47;4.70;;;2.90;;
13588;SDS011;6865;52.552;13.434;2023-05-10T06:36:14;5.55;;;2.72;;
13588;SDS011;6865;52.552;13.434;2023-05-10T06:38:40;8.05;;;2.85;;
13588;SDS011;6865;52.552;13.434;2023-05-10T06:41:07;3.75;;;2.63;;
13588;SDS011;6865;52.552;13.434;2023-05-10T06:43:34;6.32;;;3.13;;
13588;SDS011;6865;52.552;13.434;2023-05-10T06:46:01;3.40;;;2.67;;
13588;SDS011;6865;52.552;13.434;2023-05-10T06:48:27;5.03;;;3.17;;
13588;SDS011;6865;52.552;13.434;2023-05-10T06:50:54;3.40;;;2.70;;
13588;SDS011;6865;52.552;13.434;2023-05-10T06:53:20;5.32;;;2.88;;
13588;SDS011;6865;52.552;13.434;2023-05-10T06:55:48;11.63;;;3.78;;
13588;SDS011;6865;52.552;13.434;2023-05-10T06:58:15;6.30;;;2.80;;
13588;SDS011;6865;52.552;13.434;2023-05-10T07:00:42;3.72;;;2.67;;
13588;SDS011;6865;52.552;13.434;2023-05-10T07:03:10;4.15;;;2.70;;
13588;SDS011;6865;52.552;13.434;2023-05-10T07:05:37;6.18;;;2.67;;
13588;SDS011;6865;52.552;13.434;2023-05-10T07:08:04;7.88;;;3.00;;
13588;SDS011;6865;52.552;13.434;2023-05-10T07:10:30;4.75;;;2.80;;
13588;SDS011;6865;52.552;13.434;2023-05-10T07:12:57;4.13;;;2.80;;
13588;SDS011;6865;52.552;13.434;2023-05-10T07:15:23;8.55;;;3.00;;
13588;SDS011;6865;52.552;13.434;2023-05-10T07:17:50;3.55;;;2.80;;
13588;SDS011;6865;52.552;13.434;2023-05-10T07:20:18;3.53;;;2.75;;
13588;SDS011;6865;52.552;13.434;2023-05-10T07:22:45;6.93;;;3.08;;
13588;SDS011;6865;52.552;13.434;2023-05-10T07:25:12;8.00;;;2.78;;
13588;SDS011;6865;52.552;13.434;2023-05-10T07:27:38;5.63;;;3.00;;
13588;SDS011;6865;52.552;13.434;2023-05-10T07:30:05;6.32;;;2.67;;
13588;SDS011;6865;52.552;13.434;2023-05-10T07:32:32;3.75;;;2.70;;
13588;SDS011;6865;52.552;13.434;2023-05-10T07:34:59;5.47;;;3.10;;
13588;SDS011;6865;52.552;13.434;2023-05-10T07:37:26;7.68;;;3.13;;
13588;SDS011;6865;52.552;13.434;2023-05-10T07:39:52;6.78;;;2.95;;
13588;SDS011;6865;52.552;13.434;2023-05-10T07:42:19;4.35;;;3.30;;
13588;SDS011;6865;52.552;13.434;2023-05-10T07:44:46;5.68;;;3.08;;
13588;SDS011;6865;52.552;13.434;2023-05-10T07:47:13;5.82;;;3.05;;
13588;SDS011;6865;52.552;13.434;2023-05-10T07:49:39;4.78;;;3.08;;
13588;SDS011;6865;52.552;13.434;2023-05-10T07:52:06;8.80;;;3.08;;
13588;SDS011;6865;52.552;13.434;2023-05-10T07:54:33;3.65;;;2.67;;
13588;SDS011;6865;52.552;13.434;2023-05-10T07:57:00;4.47;;;2.83;;
13588;SDS011;6865;52.552;13.434;2023-05-10T07:59:26;7.05;;;3.25;;
13588;SDS011;6865;52.552;13.434;2023-05-10T08:01:53;4.28;;;2.88;;
13588;SDS011;6865;52.552;13.434;2023-05-10T08:04:20;3.78;;;2.90;;
13588;SDS011;6865;52.552;13.434;2023-05-10T08:06:47;4.45;;;2.83;;
13588;SDS011;6865;52.552;13.434;2023-05-10T08:09:13;5.15;;;2.78;;
13588;SDS011;6865;52.552;13.434;2023-05-10T08:11:40;4.00;;;2.78;;
13588;SDS011;6865;52.552;13.434;2023-05-10T08:14:06;3.42;;;2.67;;
13588;SDS011;6865;52.552;13.434;2023-05-10T08:16:33;6.40;;;3.22;;
13588;SDS011;6865;52.552;13.434;2023-05-10T08:19:00;5.07;;;3.10;;
13588;SDS011;6865;52.552;13.434;2023-05-10T08:21:27;5.93;;;2.67;;
13588;SDS011;6865;52.552;13.434;2023-05-10T08:23:53;5.32;;;2.92;;
13588;SDS011;6865;52.552;13.434;2023-05-10T08:26:20;5.95;;;3.03;;
13588;SDS011;6865;52.552;13.434;2023-05-10T08:28:47;4.28;;;2.88;;
13588;SDS011;6865;52.552;13.434;2023-05-10T08:31:14;4.75;;;3.35;;
13588;SDS011;6865;52.552;13.434;2023-05-10T08:33:42;3.47;;;2.80;;
13588;SDS011;6865;52.552;13.434;2023-05-10T08:36:28;8.85;;;2.90;;
13588;SDS011;6865;52.552;13.434;2023-05-10T08:38:55;3.28;;;2.97;;
13588;SDS011;6865;52.552;13.434;2023-05-10T08:41:22;5.20;;;3.10;;
13588;SDS011;6865;52.552;13.434;2023-05-10T08:43:50;4.25;;;2.78;;
13588;SDS011;6865;52.552;13.434;2023-05-10T08:46:18;3.25;;;2.83;;
13588;SDS011;6865;52.552;13.434;2023-05-10T08:48:46;5.50;;;3.28;;
13588;SDS011;6865;52.552;13.434;2023-05-10T08:51:14;3.95;;;2.75;;
13588;SDS011;6865;52.552;13.434;2023-05-10T08:53:45;4.57;;;2.72;;
13588;SDS011;6865;52.552;13.434;2023-05-10T08:56:12;6.13;;;2.75;;
13588;SDS011;6865;52.552;13.434;2023-05-10T08:58:39;3.60;;;2.72;;
13588;SDS011;6865;52.552;13.434;2023-05-10T09:01:05;7.15;;;3.10;;
13588;SDS011;6865;52.552;13.434;2023-05-10T09:03:33;6.18;;;3.03;;
13588;SDS011;6865;52.552;13.434;2023-05-10T09:06:01;3.80;;;2.92;;
13588;SDS011;6865;52.552;13.434;2023-05-10T09:08:27;4.72;;;2.90;;
13588;SDS011;6865;52.552;13.434;2023-05-10T09:10:55;3.92;;;2.88;;
13588;SDS011;6865;52.552;13.434;2023-05-10T09:13:22;6.50;;;2.85;;
13588;SDS011;6865;52.552;13.434;2023-05-10T09:15:50;5.25;;;3.03;;
13588;SDS011;6865;52.552;13.434;2023-05-10T09:18:18;24.38;;;8.02;;
13588;SDS011;6865;52.552;13.434;2023-05-10T09:20:45;3.50;;;2.85;;
13588;SDS011;6865;52.552;13.434;2023-05-10T09:23:12;9.32;;;3.10;;
13588;SDS011;6865;52.552;13.434;2023-05-10T09:25:38;6.72;;;3.45;;
13588;SDS011;6865;52.552;13.434;2023-05-10T09:28:07;4.05;;;2.72;;
13588;SDS011;6865;52.552;13.434;2023-05-10T09:30:35;5.40;;;2.90;;
13588;SDS011;6865;52.552;13.434;2023-05-10T09:33:02;5.03;;;3.05;;
13588;SDS011;6865;52.552;13.434;2023-05-10T09:35:30;4.57;;;3.45;;
13588;SDS011;6865;52.552;13.434;2023-05-10T09:38:00;4.07;;;2.80;;
13588;SDS011;6865;52.552;13.434;2023-05-10T09:40:29;6.55;;;2.90;;
13588;SDS011;6865;52.552;13.434;2023-05-10T09:42:57;6.10;;;3.15;;
13588;SDS011;6865;52.552;13.434;2023-05-10T09:45:25;5.72;;;3.22;;
13588;SDS011;6865;52.552;13.434;2023-05-10T09:47:53;5.18;;;2.88;;
13588;SDS011;6865;52.552;13.434;2023-05-10T09:50:20;3.30;;;2.83;;
13588;SDS011;6865;52.552;13.434;2023-05-10T09:56:01;6.50;;;2.97;;
13588;SDS011;6865;52.552;13.434;2023-05-10T09:58:13;2.97;;;2.50;;
13588;SDS011;6865;52.552;13.434;2023-05-10T10:00:41;5.38;;;2.60;;
13588;SDS011;6865;52.552;13.434;2023-05-10T10:03:17;3.30;;;2.85;;
13588;SDS011;6865;52.552;13.434;2023-05-10T10:05:46;2.85;;;2.42;;
13588;SDS011;6865;52.552;13.434;2023-05-10T10:08:14;3.85;;;2.92;;
13588;SDS011;6865;52.552;13.434;2023-05-10T10:10:41;4.20;;;2.75;;
13588;SDS011;6865;52.552;13.434;2023-05-10T10:13:11;2.92;;;2.63;;
13588;SDS011;6865;52.552;13.434;2023-05-10T10:15:38;10.20;;;3.05;;
13588;SDS011;6865;52.552;13.434;2023-05-10T10:18:05;10.15;;;3.47;;
13588;SDS011;6865;52.552;13.434;2023-05-10T10:20:34;3.85;;;2.75;;
13588;SDS011;6865;52.552;13.434;2023-05-10T10:23:03;5.82;;;2.95;;
13588;SDS011;6865;52.552;13.434;2023-05-10T10:25:30;4.45;;;2.90;;
13588;SDS011;6865;52.552;13.434;2023-05-10T10:27:59;3.88;;;3.28;;
13588;SDS011;6865;52.552;13.434;2023-05-10T10:30:53;3.40;;;2.90;;
13588;SDS011;6865;52.552;13.434;2023-05-10T10:36:17;5.18;;;3.00;;
13588;SDS011;6865;52.552;13.434;2023-05-10T10:41:27;3.78;;;2.70;;
13588;SDS011;6865;52.552;13.434;2023-05-10T10:52:23;4.88;;;2.85;;
13588;SDS011;6865;52.552;13.434;2023-05-10T10:55:03;4.65;;;2.85;;
13588;SDS011;6865;52.552;13.434;2023-05-10T11:00:49;4.10;;;3.00;;
13588;SDS011;6865;52.552;13.434;2023-05-10T11:03:05;3.75;;;2.97;;
13588;SDS011;6865;52.552;13.434;2023-05-10T11:08:33;5.53;;;2.83;;
13588;SDS011;6865;52.552;13.434;2023-05-10T11:11:07;4.63;;;2.90;;
13588;SDS011;6865;52.552;13.434;2023-05-10T11:13:44;5.10;;;2.88;;
13588;SDS011;6865;52.552;13.434;2023-05-10T11:16:16;2.83;;;2.63;;
13588;SDS011;6865;52.552;13.434;2023-05-10T11:18:54;5.03;;;3.00;;
13588;SDS011;6865;52.552;13.434;2023-05-10T11:21:24;6.75;;;2.78;;
13588;SDS011;6865;52.552;13.434;2023-05-10T11:23:53;6.90;;;2.97;;
13588;SDS011;6865;52.552;13.434;2023-05-10T11:26:25;4.20;;;3.00;;
13588;SDS011;6865;52.552;13.434;2023-05-10T11:28:56;7.05;;;2.80;;
13588;SDS011;6865;52.552;13.434;2023-05-10T11:31:25;4.38;;;2.63;;
13588;SDS011;6865;52.552;13.434;2023-05-10T11:33:54;4.05;;;3.20;;
13588;SDS011;6865;52.552;13.434;2023-05-10T11:36:23;4.47;;;2.83;;
13588;SDS011;6865;52.552;13.434;2023-05-10T11:38:51;6.28;;;2.65;;
13588;SDS011;6865;52.552;13.434;2023-05-10T11:41:19;8.10;;;3.10;;
13588;SDS011;6865;52.552;13.434;2023-05-10T11:43:49;7.32;;;3.05;;
13588;SDS011;6865;52.552;13.434;2023-05-10T11:46:18;5.68;;;2.60;;
13588;SDS011;6865;52.552;13.434;2023-05-10T11:48:46;4.38;;;2.50;;
13588;SDS011;6865;52.552;13.434;2023-05-10T11:51:15;9.05;;;3.35;;
13588;SDS011;6865;52.552;13.434;2023-05-10T11:53:45;4.40;;;2.80;;
13588;SDS011;6865;52.552;13.434;2023-05-10T11:56:12;3.63;;;2.70;;
13588;SDS011;6865;52.552;13.434;2023-05-10T11:58:39;12.15;;;2.80;;
13588;SDS011;6865;52.552;13.434;2023-05-10T12:01:06;4.22;;;2.95;;
13588;SDS011;6865;52.552;13.434;2023-05-10T12:03:34;7.00;;;2.90;;
13588;SDS011;6865;52.552;13.434;2023-05-10T12:06:01;7.55;;;3.60;;
13588;SDS011;6865;52.552;13.434;2023-05-10T12:08:29;4.07;;;2.75;;
13588;SDS011;6865;52.552;13.434;2023-05-10T12:11:07;4.07;;;2.90;;
13588;SDS011;6865;52.552;13.434;2023-05-10T12:13:38;7.38;;;3.00;;
13588;SDS011;6865;52.552;13.434;2023-05-10T12:16:12;7.88;;;2.53;;
13588;SDS011;6865;52.552;13.434;2023-05-10T12:18:40;6.68;;;3.05;;
13588;SDS011;6865;52.552;13.434;2023-05-10T12:21:09;6.70;;;2.92;;
13588;SDS011;6865;52.552;13.434;2023-05-10T12:23:39;8.23;;;2.97;;
13588;SDS011;6865;52.552;13.434;2023-05-10T12:26:06;5.25;;;2.88;;
13588;SDS011;6865;52.552;13.434;2023-05-10T12:28:36;3.08;;;2.33;;
13588;SDS011;6865;52.552;13.434;2023-05-10T12:31:03;5.45;;;3.20;;
13588;SDS011;6865;52.552;13.434;2023-05-10T12:33:37;6.63;;;2.80;;
13588;SDS011;6865;52.552;13.434;2023-05-10T12:36:08;6.85;;;3.00;;
13588;SDS011;6865;52.552;13.434;2023-05-10T12:38:39;5.75;;;2.60;;
13588;SDS011;6865;52.552;13.434;2023-05-10T12:41:10;3.63;;;2.63;;
13588;SDS011;6865;52.552;13.434;2023-05-10T12:43:41;7.45;;;3.35;;
13588;SDS011;6865;52.552;13.434;2023-05-10T12:46:12;3.95;;;3.15;;
13588;SDS011;6865;52.552;13.434;2023-05-10T12:48:40;14.95;;;2.80;;
13588;SDS011;6865;52.552;13.434;2023-05-10T12:51:08;6.10;;;2.58;;
13588;SDS011;6865;52.552;13.434;2023-05-10T12:53:37;4.57;;;2.67;;
13588;SDS011;6865;52.552;13.434;2023-05-10T12:56:08;5.20;;;3.78;;
13588;SDS011;6865;52.552;13.434;2023-05-10T12:58:35;4.30;;;2.88;;
13588;SDS011;6865;52.552;13.434;2023-05-10T13:01:01;4.53;;;2.35;;
13588;SDS011;6865;52.552;13.434;2023-05-10T13:03:29;3.13;;;2.55;;
13588;SDS011;6865;52.552;13.434;2023-05-10T13:05:56;5.63;;;2.70;;
13588;SDS011;6865;52.552;13.434;2023-05-10T13:08:23;5.28;;;2.63;;
13588;SDS011;6865;52.552;13.434;2023-05-10T13:10:49;8.05;;;2.95;;
13588;SDS011;6865;52.552;13.434;2023-05-10T13:13:16;6.32;;;2.60;;
13588;SDS011;6865;52.552;13.434;2023-05-10T13:15:44;3.15;;;2.20;;
13588;SDS011;6865;52.552;13.434;2023-05-10T13:18:11;5.53;;;2.30;;
13588;SDS011;6865;52.552;13.434;2023-05-10T13:20:37;5.85;;;2.70;;
13588;SDS011;6865;52.552;13.434;2023-05-10T13:23:04;8.52;;;2.78;;
13588;SDS011;6865;52.552;13.434;2023-05-10T13:25:31;7.68;;;2.70;;
13588;SDS011;6865;52.552;13.434;2023-05-10T13:27:57;4.70;;;2.45;;
13588;SDS011;6865;52.552;13.434;2023-05-10T13:30:24;7.25;;;2.50;;
13588;SDS011;6865;52.552;13.434;2023-05-10T13:32:51;7.53;;;2.80;;
13588;SDS011;6865;52.552;13.434;2023-05-10T13:35:17;5.65;;;2.42;;
13588;SDS011;6865;52.552;13.434;2023-05-10T13:37:44;3.00;;;2.28;;
13588;SDS011;6865;52.552;13.434;2023-05-10T13:40:11;3.03;;;2.35;;
13588;SDS011;6865;52.552;13.434;2023-05-10T13:42:38;6.00;;;2.50;;
13588;SDS011;6865;52.552;13.434;2023-05-10T13:45:05;3.30;;;2.60;;
13588;SDS011;6865;52.552;13.434;2023-05-10T13:47:32;5.80;;;2.78;;
13588;SDS011;6865;52.552;13.434;2023-05-10T13:49:59;2.75;;;2.42;;
13588;SDS011;6865;52.552;13.434;2023-05-10T13:52:26;3.70;;;2.70;;
13588;SDS011;6865;52.552;13.434;2023-05-10T13:54:53;3.28;;;2.33;;
13588;SDS011;6865;52.552;13.434;2023-05-10T13:57:21;2.92;;;2.60;;
13588;SDS011;6865;52.552;13.434;2023-05-10T13:59:49;3.28;;;2.40;;
13588;SDS011;6865;52.552;13.434;2023-05-10T14:02:16;3.72;;;2.58;;
13588;SDS011;6865;52.552;13.434;2023-05-10T14:04:42;5.38;;;2.47;;
13588;SDS011;6865;52.552;13.434;2023-05-10T14:07:09;4.38;;;2.55;;
13588;SDS011;6865;52.552;13.434;2023-05-10T14:09:36;4.32;;;2.50;;
13588;SDS011;6865;52.552;13.434;2023-05-10T14:12:02;4.50;;;2.70;;
13588;SDS011;6865;52.552;13.434;2023-05-10T14:14:29;4.28;;;2.78;;
13588;SDS011;6865;52.552;13.434;2023-05-10T14:16:56;8.52;;;3.42;;
13588;SDS011;6865;52.552;13.434;2023-05-10T14:19:23;6.25;;;3.10;;
13588;SDS011;6865;52.552;13.434;2023-05-10T14:21:49;7.97;;;3.17;;
13588;SDS011;6865;52.552;13.434;2023-05-10T14:24:17;2.90;;;2.58;;
13588;SDS011;6865;52.552;13.434;2023-05-10T14:26:44;4.00;;;2.38;;
13588;SDS011;6865;52.552;13.434;2023-05-10T14:29:11;4.07;;;2.22;;
13588;SDS011;6865;52.552;13.434;2023-05-10T14:31:38;6.82;;;2.78;;
13588;SDS011;6865;52.552;13.434;2023-05-10T14:34:06;3.00;;;2.30;;
13588;SDS011;6865;52.552;13.434;2023-05-10T14:36:33;4.45;;;2.63;;
13588;SDS011;6865;52.552;13.434;2023-05-10T14:38:59;4.22;;;2.85;;
13588;SDS011;6865;52.552;13.434;2023-05-10T14:41:26;8.63;;;2.80;;
13588;SDS011;6865;52.552;13.434;2023-05-10T14:43:52;4.50;;;2.70;;
13588;SDS011;6865;52.552;13.434;2023-05-10T14:46:19;5.53;;;2.35;;
13588;SDS011;6865;52.552;13.434;2023-05-10T14:48:46;2.75;;;2.40;;
13588;SDS011;6865;52.552;13.434;2023-05-10T14:51:13;6.75;;;2.47;;
13588;SDS011;6865;52.552;13.434;2023-05-10T14:53:39;4.20;;;2.50;;
13588;SDS011;6865;52.552;13.434;2023-05-10T14:56:06;4.72;;;2.60;;
13588;SDS011;6865;52.552;13.434;2023-05-10T14:58:33;3.97;;;2.40;;
13588;SDS011;6865;52.552;13.434;2023-05-10T15:01:00;4.30;;;2.58;;
13588;SDS011;6865;52.552;13.434;2023-05-10T15:03:27;4.15;;;2.40;;
13588;SDS011;6865;52.552;13.434;2023-05-10T15:05:54;6.65;;;2.40;;
13588;SDS011;6865;52.552;13.434;2023-05-10T15:08:23;2.83;;;2.25;;
13588;SDS011;6865;52.552;13.434;2023-05-10T15:10:51;5.63;;;2.45;;
13588;SDS011;6865;52.552;13.434;2023-05-10T15:13:17;6.28;;;2.80;;
13588;SDS011;6865;52.552;13.434;2023-05-10T15:15:44;19.45;;;3.15;;
13588;SDS011;6865;52.552;13.434;2023-05-10T15:18:11;3.00;;;2.70;;
13588;SDS011;6865;52.552;13.434;2023-05-10T15:20:37;3.08;;;2.10;;
13588;SDS011;6865;52.552;13.434;2023-05-10T15:23:04;4.78;;;2.40;;